Egegik Airport
PAII : now visible

Airfield :











YOU CAN JOIN US ON...

 
LOGIN :

Register | Disclaimer

   EN    FR    IT 

 









Legend :    VFR   Marginal VFR   IFR   Intensive IFR   Very Intensive IFR
Visi :
Ceiling :
>= 8 km
>= 3000ft
5 to 8 km
1000 to 3000 ft
1500m to 5 km
500 to 1000 ft
800 to 1500m
200 to 500 ft
< 800m
< 200 ft
Symbols :   Thunderstorms  Fog  Heavy snow  Heavy precipitations  Wind > 20 kt






- Airport Elevation : 92 ft
- IATA code : EII


PAII - Egegik

CURRENT METAR :
  • 151756Z AUTO 00000KT OVC085 00/M01 A2924 RMK AO2 SLP901 T00001011 10011 21006 53010 PWINO FZRANO TSNO $

EXPIRED METARs :
  • 151656Z AUTO 02005KT 10SM SCT090 M01/M01 A2923 RMK AO2 SLP896 T10061011 FZRANO TSNO
  • 151556Z AUTO 01005KT CLR M01/M02 A2922 RMK AO2 SLP893 T10061017 FZRANO TSNO

TAF N/A



MET'MAP, your aeronautical weather chart ! - Copyright ORBIFLY December 2007 - Disclaimer

ORBIFLY MET'MAP TEAM :

Programming & Development : Alexandra Zaïnal
Concept & Development : Baudouin d'Aumeries
Co-Development & Prog : Marc-Olivier Méhu
Technical & hardware support : Manuel Goepfert

Contact : metmap@orbifly.com




SOURCES & CREDITS :

   NOAA       Earth
Advisory